Time;durP1;ratioP1;P1;durP2;ratioP2;P2;SDS_P1;SDS_P2;PMS_P1;PMS_P2;Temp;Humidity;BMP_temperature;BMP_pressure;BME280_temperature;BME280_humidity;BME280_pressure;Samples;Min_cycle;Max_cycle;Signal;HPM_P1;HPM_P2
2020/12/12 00:01:18;;;;;;;45.57;17.37;;;1.30;99.90;;;;;;5025273;28;20286;-66
2020/12/12 00:03:45;;;;;;;43.13;16.33;;;1.30;99.90;;;;;;5029093;28;20214;-66
2020/12/12 00:06:12;;;;;;;46.77;18.03;;;1.30;99.90;;;;;;5008354;28;20605;-66
2020/12/12 00:08:39;;;;;;;52.57;16.50;;;1.40;99.90;;;;;;5007636;28;20231;-66
2020/12/12 00:11:05;;;;;;;43.47;16.10;;;1.40;99.90;;;;;;4989417;28;20626;-66
2020/12/12 00:13:32;;;;;;;36.00;15.70;;;1.40;99.90;;;;;;5005179;28;20210;-66
2020/12/12 00:16:00;;;;;;;48.00;14.33;;;1.40;99.90;;;;;;4984024;28;20745;-66
2020/12/12 00:18:26;;;;;;;38.10;13.97;;;1.40;99.90;;;;;;4903760;29;20262;-66
2020/12/12 00:20:53;;;;;;;37.93;14.20;;;1.40;99.90;;;;;;4925008;29;20210;-67
2020/12/12 00:23:19;;;;;;;47.93;15.50;;;1.40;99.90;;;;;;4910678;29;20218;-66
2020/12/12 00:25:47;;;;;;;35.30;15.03;;;1.40;99.90;;;;;;4887389;29;20424;-65
2020/12/12 00:28:14;;;;;;;42.67;12.90;;;1.40;99.90;;;;;;4877440;29;20592;-66
2020/12/12 00:30:41;;;;;;;64.93;16.13;;;1.50;99.90;;;;;;4867699;29;20222;-66
2020/12/12 00:33:08;;;;;;;60.27;16.80;;;1.50;99.90;;;;;;4874550;29;20291;-65
2020/12/12 00:35:35;;;;;;;43.87;14.87;;;1.40;99.90;;;;;;4874993;29;20220;-65
2020/12/12 00:38:02;;;;;;;41.73;16.10;;;1.40;99.90;;;;;;4890804;29;20258;-65
2020/12/12 00:40:28;;;;;;;80.70;17.97;;;1.30;99.90;;;;;;4897007;29;20239;-65
2020/12/12 00:42:55;;;;;;;40.67;16.47;;;1.30;99.90;;;;;;4899272;29;20663;-66
2020/12/12 00:45:22;;;;;;;40.00;14.47;;;1.30;99.90;;;;;;4926704;29;20257;-66
2020/12/12 00:47:49;;;;;;;44.70;16.77;;;1.30;99.90;;;;;;4946649;28;20224;-66
2020/12/12 00:50:16;;;;;;;44.20;15.97;;;1.30;99.90;;;;;;5017360;28;20301;-66
2020/12/12 00:52:43;;;;;;;63.03;16.77;;;1.30;99.90;;;;;;5055460;28;20217;-66
2020/12/12 00:55:10;;;;;;;56.40;16.93;;;1.30;99.90;;;;;;5020225;28;20198;-66
2020/12/12 00:57:36;;;;;;;37.53;15.23;;;1.30;99.90;;;;;;5014867;28;20214;-66
2020/12/12 01:00:04;;;;;;;44.27;15.30;;;1.20;99.90;;;;;;5027329;28;20317;-66
2020/12/12 01:02:31;;;;;;;28.70;11.93;;;1.20;99.90;;;;;;5028288;28;20309;-66
2020/12/12 01:04:57;;;;;;;75.20;17.43;;;1.20;99.90;;;;;;5027668;28;20241;-66
2020/12/12 01:07:25;;;;;;;54.07;16.53;;;1.30;99.90;;;;;;5004933;28;20203;-66
2020/12/12 01:09:51;;;;;;;36.07;13.87;;;1.20;99.90;;;;;;4997064;28;20219;-66
2020/12/12 01:12:19;;;;;;;31.53;11.50;;;1.20;99.90;;;;;;4975538;28;20667;-66
2020/12/12 01:14:45;;;;;;;38.47;11.83;;;1.20;99.90;;;;;;4979053;28;20721;-66
2020/12/12 01:17:12;;;;;;;44.80;15.77;;;1.30;99.90;;;;;;4983339;28;20207;-66
2020/12/12 01:19:38;;;;;;;100.70;20.17;;;1.30;99.90;;;;;;4984573;28;20223;-66
2020/12/12 01:22:05;;;;;;;98.70;21.47;;;1.30;99.90;;;;;;4972304;28;20231;-66
2020/12/12 01:24:33;;;;;;;114.67;21.37;;;1.20;99.90;;;;;;4985432;28;20646;-65
2020/12/12 01:26:59;;;;;;;76.30;19.37;;;1.10;99.90;;;;;;4975631;28;20240;-66
2020/12/12 01:29:26;;;;;;;46.77;16.57;;;1.00;99.90;;;;;;4972751;28;20643;-66
2020/12/12 01:31:52;;;;;;;45.47;16.40;;;1.00;99.90;;;;;;5007172;28;20303;-66
2020/12/12 01:34:19;;;;;;;73.10;19.77;;;0.90;99.90;;;;;;4989930;28;20246;-66
2020/12/12 01:36:50;;;;;;;68.27;19.67;;;0.90;99.90;;;;;;4990873;28;20212;-66
2020/12/12 01:39:17;;;;;;;62.43;20.43;;;0.80;99.90;;;;;;4986731;28;20346;-66
2020/12/12 01:41:44;;;;;;;66.40;19.33;;;0.80;99.90;;;;;;4991544;28;20675;-66
2020/12/12 01:44:11;;;;;;;61.70;18.20;;;0.80;99.90;;;;;;4992795;28;20211;-66
2020/12/12 01:46:38;;;;;;;73.97;19.83;;;0.80;99.90;;;;;;5012018;28;20273;-66
2020/12/12 01:49:06;;;;;;;58.07;18.67;;;0.70;99.90;;;;;;5011475;28;20234;-65
2020/12/12 01:51:34;;;;;;;59.30;16.17;;;0.80;99.90;;;;;;5011847;28;20214;-66
2020/12/12 01:54:00;;;;;;;41.37;16.63;;;0.70;99.90;;;;;;5010040;28;20302;-66
2020/12/12 01:56:30;;;;;;;36.47;14.13;;;0.50;99.90;;;;;;4995176;28;20242;-66
2020/12/12 01:58:57;;;;;;;48.17;16.03;;;0.80;99.90;;;;;;5008264;28;20676;-65
2020/12/12 02:01:27;;;;;;;82.00;19.57;;;0.80;99.90;;;;;;4977804;28;20209;-65
2020/12/12 02:03:56;;;;;;;48.50;17.30;;;0.80;99.90;;;;;;4988996;28;20698;-66
2020/12/12 02:06:23;;;;;;;64.17;20.00;;;0.80;99.90;;;;;;5009996;28;20211;-66
2020/12/12 02:08:52;;;;;;;75.27;18.20;;;0.80;99.90;;;;;;4995762;28;20298;-65
2020/12/12 02:11:19;;;;;;;73.63;21.37;;;0.80;99.90;;;;;;5010162;28;20663;-66
2020/12/12 02:13:46;;;;;;;48.73;19.40;;;0.80;99.90;;;;;;5009496;28;20714;-66
2020/12/12 02:16:14;;;;;;;54.10;19.80;;;0.80;99.90;;;;;;5011785;28;20201;-66
2020/12/12 02:18:41;;;;;;;69.63;19.83;;;0.70;99.90;;;;;;5050046;28;20194;-66
2020/12/12 02:21:08;;;;;;;94.27;20.50;;;0.80;99.90;;;;;;5050433;28;20292;-65
2020/12/12 02:23:37;;;;;;;59.10;18.23;;;0.80;99.90;;;;;;5049942;28;20247;-66
2020/12/12 02:29:40;;;;;;;51.27;16.43;;;0.80;99.90;;;;;;5030116;28;20215;-66
2020/12/12 02:32:07;;;;;;;41.17;17.27;;;0.80;99.90;;;;;;5037702;28;20213;-66
2020/12/12 02:34:34;;;;;;;49.53;16.33;;;0.80;99.90;;;;;;5050201;28;20229;-66
2020/12/12 02:37:00;;;;;;;56.73;16.03;;;0.90;99.90;;;;;;5048642;28;20201;-66
2020/12/12 02:39:28;;;;;;;43.57;15.63;;;0.90;99.90;;;;;;5048764;28;20205;-65
2020/12/12 02:41:54;;;;;;;59.30;17.20;;;0.90;99.90;;;;;;5050471;28;20229;-66
2020/12/12 02:44:21;;;;;;;38.57;16.27;;;0.90;99.90;;;;;;5049558;28;20283;-66
2020/12/12 02:46:48;;;;;;;45.80;16.23;;;0.80;99.90;;;;;;5050518;28;20703;-66
2020/12/12 02:49:14;;;;;;;73.70;19.17;;;0.90;99.90;;;;;;5049885;28;20209;-66
2020/12/12 02:51:41;;;;;;;42.93;15.40;;;0.80;99.90;;;;;;5050539;28;20285;-66
2020/12/12 02:54:08;;;;;;;35.33;13.83;;;0.80;99.90;;;;;;5026687;28;20305;-66
2020/12/12 02:56:35;;;;;;;45.90;16.57;;;0.80;99.90;;;;;;5009792;28;20253;-66
2020/12/12 02:59:03;;;;;;;52.10;18.27;;;0.80;99.90;;;;;;5006326;28;20207;-66
2020/12/12 03:01:29;;;;;;;56.73;18.17;;;0.80;99.90;;;;;;4990696;28;20226;-66
2020/12/12 03:03:56;;;;;;;54.47;17.23;;;0.80;99.90;;;;;;5003273;28;20211;-65
2020/12/12 03:06:23;;;;;;;60.90;19.43;;;0.70;99.90;;;;;;5010203;28;20203;-65
2020/12/12 03:08:49;;;;;;;60.50;18.67;;;0.70;99.90;;;;;;4988883;28;20223;-65
2020/12/12 03:11:16;;;;;;;53.07;17.80;;;0.70;99.90;;;;;;4990699;28;20215;-65
2020/12/12 03:13:43;;;;;;;39.40;15.67;;;0.60;99.90;;;;;;4989926;28;20266;-65
2020/12/12 03:16:10;;;;;;;38.37;14.40;;;0.70;99.90;;;;;;4983472;28;20654;-66
2020/12/12 03:18:36;;;;;;;39.50;14.80;;;0.70;99.90;;;;;;4989046;28;20207;-65
2020/12/12 03:21:03;;;;;;;33.80;12.43;;;0.70;99.90;;;;;;4989712;28;20248;-65
2020/12/12 03:23:30;;;;;;;41.80;13.97;;;0.70;99.90;;;;;;4989118;28;20686;-66
2020/12/12 03:25:56;;;;;;;60.20;16.10;;;0.70;99.90;;;;;;5006023;28;20215;-65
2020/12/12 03:28:23;;;;;;;52.63;16.60;;;0.70;99.90;;;;;;5009486;28;20316;-65
2020/12/12 03:30:50;;;;;;;62.53;16.90;;;0.70;99.90;;;;;;5007975;28;20207;-67
2020/12/12 03:33:17;;;;;;;43.63;15.90;;;0.70;99.90;;;;;;5020968;28;20636;-66
2020/12/12 03:35:43;;;;;;;44.83;17.33;;;0.60;99.90;;;;;;5049167;28;20201;-66
2020/12/12 03:38:10;;;;;;;36.17;14.53;;;0.60;99.90;;;;;;5031074;28;20210;-66
2020/12/12 03:40:37;;;;;;;36.07;14.53;;;0.50;99.90;;;;;;5068501;28;20628;-66
2020/12/12 03:43:03;;;;;;;24.10;11.50;;;0.70;99.90;;;;;;5091462;28;20269;-67
2020/12/12 03:45:30;;;;;;;33.40;13.20;;;0.60;99.90;;;;;;5092384;28;20219;-66
2020/12/12 03:47:57;;;;;;;38.57;14.37;;;0.70;99.90;;;;;;5073066;28;20200;-66
2020/12/12 03:50:28;;;;;;;31.73;12.53;;;0.60;99.90;;;;;;5075124;28;20212;-66
2020/12/12 03:52:54;;;;;;;27.97;10.53;;;0.70;99.90;;;;;;5069787;28;20213;-66
2020/12/12 03:55:21;;;;;;;24.33;9.77;;;0.80;99.90;;;;;;5084440;28;20744;-67
2020/12/12 03:57:48;;;;;;;23.47;10.07;;;0.80;99.90;;;;;;5087240;28;20215;-66
2020/12/12 04:00:14;;;;;;;27.37;11.03;;;0.90;99.90;;;;;;5086889;28;20250;-66
2020/12/12 04:02:41;;;;;;;33.63;12.40;;;0.90;99.90;;;;;;5076885;28;20244;-66
2020/12/12 04:05:08;;;;;;;31.60;13.47;;;0.90;99.90;;;;;;5043203;28;20221;-66
2020/12/12 04:07:35;;;;;;;36.70;13.43;;;0.90;99.90;;;;;;5011459;28;20211;-67
2020/12/12 04:10:01;;;;;;;39.47;13.70;;;0.90;99.90;;;;;;5007006;28;20300;-66
2020/12/12 04:12:28;;;;;;;49.63;18.10;;;0.90;99.90;;;;;;5009229;28;20225;-66
2020/12/12 04:14:54;;;;;;;36.47;16.13;;;0.90;99.90;;;;;;5005844;28;20231;-67
2020/12/12 04:17:21;;;;;;;36.03;13.13;;;0.90;99.90;;;;;;5007942;28;20242;-67
2020/12/12 04:19:47;;;;;;;29.30;12.10;;;0.90;99.90;;;;;;5004917;28;20618;-67
2020/12/12 04:22:15;;;;;;;30.60;12.70;;;0.90;99.90;;;;;;4975305;28;20196;-67
2020/12/12 04:24:41;;;;;;;36.17;13.93;;;1.00;99.90;;;;;;4987184;28;20303;-67
2020/12/12 04:27:08;;;;;;;56.93;16.27;;;1.00;99.90;;;;;;4988453;28;20226;-67
2020/12/12 04:29:34;;;;;;;48.73;16.10;;;1.00;99.90;;;;;;4988708;28;20239;-67
2020/12/12 04:32:01;;;;;;;44.50;14.87;;;1.00;99.90;;;;;;5007268;28;20203;-67
2020/12/12 04:34:28;;;;;;;38.87;14.97;;;1.00;99.90;;;;;;5008573;28;20218;-67
2020/12/12 04:36:54;;;;;;;38.60;14.97;;;1.00;99.90;;;;;;4974469;28;20706;-67
2020/12/12 04:39:22;;;;;;;29.30;12.07;;;1.00;99.90;;;;;;4995696;28;20230;-67
2020/12/12 04:41:51;;;;;;;33.40;12.20;;;1.00;99.90;;;;;;5008819;28;20578;-66
2020/12/12 04:44:18;;;;;;;31.23;12.30;;;1.10;99.90;;;;;;5007951;28;20766;-67
2020/12/12 04:46:45;;;;;;;30.33;11.57;;;1.10;99.90;;;;;;5008290;28;20213;-67
2020/12/12 04:49:12;;;;;;;36.80;12.73;;;1.20;99.90;;;;;;5008477;28;20265;-66
2020/12/12 04:51:39;;;;;;;42.73;14.87;;;1.20;99.90;;;;;;5008469;28;20203;-66
2020/12/12 04:54:09;;;;;;;39.03;14.10;;;1.20;99.90;;;;;;5032532;28;20250;-67
2020/12/12 04:56:37;;;;;;;36.33;13.70;;;1.20;99.90;;;;;;5025719;28;20202;-67
2020/12/12 04:59:04;;;;;;;32.03;12.77;;;1.20;99.90;;;;;;4988055;28;20835;-67
2020/12/12 05:01:32;;;;;;;30.47;12.10;;;1.30;99.90;;;;;;4988819;28;20208;-67
2020/12/12 05:04:02;;;;;;;44.50;17.20;;;1.30;99.90;;;;;;5005855;28;20215;-67
2020/12/12 05:06:29;;;;;;;39.57;14.57;;;1.30;99.90;;;;;;5006133;28;20211;-67
2020/12/12 05:08:56;;;;;;;42.37;15.27;;;1.30;99.90;;;;;;5014585;28;20253;-67
2020/12/12 05:11:24;;;;;;;45.03;16.03;;;1.30;99.90;;;;;;5032255;28;20285;-67
2020/12/12 05:13:51;;;;;;;42.97;16.40;;;1.20;99.90;;;;;;5031313;28;20206;-67
2020/12/12 05:16:18;;;;;;;40.37;16.30;;;1.20;99.90;;;;;;5036789;28;20206;-67
2020/12/12 05:18:45;;;;;;;47.43;17.53;;;1.10;99.90;;;;;;5031806;28;20272;-67
2020/12/12 05:21:13;;;;;;;37.47;15.63;;;1.10;99.90;;;;;;5011629;28;20261;-67
2020/12/12 05:23:39;;;;;;;33.33;13.60;;;1.10;99.90;;;;;;4979396;28;20204;-66
2020/12/12 05:26:06;;;;;;;26.83;12.03;;;1.10;99.90;;;;;;4994962;28;20215;-66
2020/12/12 05:28:33;;;;;;;27.90;10.87;;;1.10;99.90;;;;;;4948767;28;20570;-67
2020/12/12 05:31:00;;;;;;;28.00;11.43;;;1.20;99.90;;;;;;4985798;28;20214;-67
2020/12/12 05:33:27;;;;;;;24.93;10.90;;;1.20;99.90;;;;;;4994248;28;20322;-67
2020/12/12 05:35:54;;;;;;;36.60;13.60;;;1.20;99.90;;;;;;4995105;28;20219;-66
2020/12/12 05:38:21;;;;;;;44.77;16.17;;;1.30;99.90;;;;;;4988172;28;20711;-66
2020/12/12 05:40:52;;;;;;;39.37;14.13;;;1.20;99.90;;;;;;5009044;28;20199;-66
2020/12/12 05:43:19;;;;;;;40.90;15.13;;;1.20;99.90;;;;;;5009479;28;20234;-67
2020/12/12 05:45:46;;;;;;;47.17;16.13;;;1.20;99.90;;;;;;5015657;28;20215;-67
2020/12/12 05:48:13;;;;;;;54.00;18.87;;;1.20;99.90;;;;;;5008331;28;20286;-66
2020/12/12 05:50:40;;;;;;;49.00;17.37;;;1.10;99.90;;;;;;5010708;28;20748;-66
2020/12/12 05:53:07;;;;;;;59.47;18.60;;;1.10;99.90;;;;;;5042702;28;20255;-67
2020/12/12 05:55:35;;;;;;;47.30;17.97;;;2.10;99.90;;;;;;5070961;28;20238;-67
2020/12/12 05:58:02;;;;;;;40.90;15.57;;;1.00;99.90;;;;;;5073259;28;20652;-67
2020/12/12 06:00:30;;;;;;;44.53;15.87;;;1.00;99.90;;;;;;5073699;27;20217;-67
2020/12/12 06:02:58;;;;;;;51.83;17.30;;;1.00;99.90;;;;;;5073893;28;20273;-66
2020/12/12 06:05:29;;;;;;;49.60;17.73;;;1.00;99.90;;;;;;5070910;28;20201;-66
2020/12/12 06:07:57;;;;;;;56.30;18.60;;;0.80;99.90;;;;;;5069835;28;20212;-66
2020/12/12 06:10:27;;;;;;;53.87;18.37;;;0.90;99.90;;;;;;5069970;28;20297;-67
2020/12/12 06:12:57;;;;;;;55.50;18.10;;;0.80;99.90;;;;;;5070593;28;20772;-67
2020/12/12 06:15:34;;;;;;;57.43;18.10;;;0.80;99.90;;;;;;5049950;28;20241;-68
2020/12/12 06:18:22;;;;;;;53.27;18.73;;;0.80;99.90;;;;;;5051023;28;20198;-67
2020/12/12 06:20:52;;;;;;;40.40;15.70;;;0.80;99.90;;;;;;5044178;28;20661;-68
2020/12/12 06:23:18;;;;;;;66.70;18.47;;;0.80;99.90;;;;;;5048462;28;20727;-67
2020/12/12 06:25:45;;;;;;;72.03;19.87;;;0.80;99.90;;;;;;5055397;28;20213;-67
2020/12/12 06:28:20;;;;;;;65.20;23.13;;;0.80;99.90;;;;;;5049564;28;20749;-67
2020/12/12 06:30:47;;;;;;;59.83;20.67;;;0.80;99.90;;;;;;5050942;28;20216;-67
2020/12/12 06:33:14;;;;;;;60.47;21.33;;;0.80;99.90;;;;;;5043072;28;20646;-67
2020/12/12 06:35:40;;;;;;;50.87;19.93;;;0.80;99.90;;;;;;4991131;28;20212;-67
2020/12/12 06:38:28;;;;;;;40.90;16.67;;;0.80;99.90;;;;;;4989396;28;20227;-67
2020/12/12 06:40:58;;;;;;;52.30;19.73;;;0.90;99.90;;;;;;4985525;28;20282;-67
2020/12/12 06:43:35;;;;;;;42.10;16.20;;;0.90;99.90;;;;;;4990817;28;20220;-67
2020/12/12 06:46:03;;;;;;;46.07;17.77;;;0.90;99.90;;;;;;4990937;28;20215;-67
2020/12/12 06:48:31;;;;;;;46.73;18.40;;;0.90;99.90;;;;;;4990655;28;20741;-67
2020/12/12 06:51:00;;;;;;;52.20;20.07;;;0.90;99.90;;;;;;4971664;28;20330;-67
2020/12/12 06:53:29;;;;;;;48.77;18.40;;;0.90;99.90;;;;;;4970016;28;20659;-67
2020/12/12 06:56:12;;;;;;;42.60;17.30;;;0.90;99.90;;;;;;4971486;28;20975;-66
2020/12/12 06:58:40;;;;;;;47.53;17.93;;;0.90;99.90;;;;;;4971116;28;20294;-66
2020/12/12 07:01:26;;;;;;;47.23;19.23;;;0.90;99.90;;;;;;4972510;28;20402;-67
2020/12/12 07:03:57;;;;;;;54.87;20.20;;;0.80;99.90;;;;;;4951282;29;20201;-67
2020/12/12 07:06:27;;;;;;;59.47;20.53;;;0.90;99.90;;;;;;4965599;28;20698;-67
2020/12/12 07:09:00;;;;;;;62.00;21.70;;;0.90;99.90;;;;;;4988876;28;20669;-67
2020/12/12 07:11:27;;;;;;;50.20;20.37;;;0.90;99.90;;;;;;4996799;28;20678;-67
2020/12/12 07:13:54;;;;;;;41.57;16.47;;;0.90;99.90;;;;;;5009152;28;20255;-66
2020/12/12 07:16:21;;;;;;;52.60;20.50;;;0.90;99.90;;;;;;5010172;28;20234;-67
2020/12/12 07:18:49;;;;;;;52.47;20.23;;;1.00;99.90;;;;;;5005760;28;20199;-66
2020/12/12 07:21:16;;;;;;;55.63;22.20;;;0.90;99.90;;;;;;4977261;28;20378;-67
2020/12/12 07:23:43;;;;;;;56.07;21.23;;;0.90;99.90;;;;;;4966481;28;20303;-66
2020/12/12 07:26:10;;;;;;;51.60;21.27;;;0.80;99.90;;;;;;4971002;28;20212;-67
2020/12/12 07:28:37;;;;;;;46.37;18.73;;;0.80;99.90;;;;;;4970554;28;20344;-67
2020/12/12 07:31:04;;;;;;;60.00;21.83;;;0.80;99.90;;;;;;4969740;28;20236;-67
2020/12/12 07:33:31;;;;;;;47.63;21.17;;;0.80;99.90;;;;;;4943522;29;20263;-67
2020/12/12 07:35:58;;;;;;;55.17;21.40;;;0.80;99.90;;;;;;4902106;29;20706;-67
2020/12/12 07:38:25;;;;;;;57.23;21.73;;;0.70;99.90;;;;;;4892705;29;20791;-68
2020/12/12 07:40:52;;;;;;;54.40;23.37;;;0.80;99.90;;;;;;4894156;29;20298;-67
2020/12/12 07:43:19;;;;;;;54.83;21.73;;;0.80;99.90;;;;;;4893875;29;20219;-67
2020/12/12 07:45:56;;;;;;;50.93;21.90;;;0.70;99.90;;;;;;4908944;29;20386;-67
2020/12/12 07:48:23;;;;;;;49.00;20.50;;;0.70;99.90;;;;;;4893804;29;20297;-67
2020/12/12 07:50:49;;;;;;;50.70;20.17;;;0.70;99.90;;;;;;4928156;29;20213;-67
2020/12/12 07:53:19;;;;;;;48.10;20.80;;;0.70;99.90;;;;;;4913391;29;20606;-67
2020/12/12 07:55:54;;;;;;;52.37;21.67;;;0.70;99.90;;;;;;4966353;28;20348;-67
2020/12/12 07:58:27;;;;;;;54.97;22.53;;;0.70;99.90;;;;;;4950501;29;20746;-67
2020/12/12 08:00:57;;;;;;;50.57;19.97;;;0.70;99.90;;;;;;4949717;29;20240;-67
2020/12/12 08:03:26;;;;;;;53.43;20.63;;;0.70;99.90;;;;;;4936311;29;20253;-68
2020/12/12 08:06:05;;;;;;;46.47;19.30;;;0.70;99.90;;;;;;4951618;28;20300;-67
2020/12/12 08:08:31;;;;;;;45.27;19.53;;;0.80;99.90;;;;;;5000578;28;20695;-66
2020/12/12 08:10:59;;;;;;;42.93;18.43;;;0.70;99.90;;;;;;5028754;28;20680;-67
2020/12/12 08:13:28;;;;;;;42.37;18.00;;;0.70;99.90;;;;;;5040318;28;20210;-67
2020/12/12 08:16:11;;;;;;;40.93;16.93;;;0.70;99.90;;;;;;5028659;28;20230;-67
2020/12/12 08:18:37;;;;;;;43.60;17.80;;;0.80;99.90;;;;;;5008896;28;20211;-67
2020/12/12 08:21:14;;;;;;;41.43;17.57;;;0.80;99.90;;;;;;5009238;28;20277;-67
2020/12/12 08:23:42;;;;;;;43.50;18.37;;;0.80;99.90;;;;;;5023672;28;20699;-67
2020/12/12 08:26:15;;;;;;;38.37;16.87;;;0.90;99.90;;;;;;5018907;28;20219;-67
2020/12/12 08:28:45;;;;;;;46.37;19.83;;;0.90;99.90;;;;;;4988074;28;20634;-67
2020/12/12 08:31:13;;;;;;;43.90;18.30;;;0.90;99.90;;;;;;4973935;28;20188;-67
2020/12/12 08:33:41;;;;;;;46.43;18.80;;;0.90;99.90;;;;;;4996237;28;20239;-67
2020/12/12 08:36:18;;;;;;;52.07;20.27;;;0.90;99.90;;;;;;4988825;28;20278;-67
2020/12/12 08:38:52;;;;;;;47.17;18.33;;;0.90;99.90;;;;;;4979814;28;20219;-67
2020/12/12 08:41:19;;;;;;;46.67;17.93;;;0.90;99.90;;;;;;4969160;28;20350;-67
2020/12/12 08:43:47;;;;;;;41.77;18.53;;;1.00;99.90;;;;;;4987330;28;20204;-67
2020/12/12 08:46:15;;;;;;;51.47;20.87;;;1.10;99.90;;;;;;4988933;28;20233;-67
2020/12/12 08:48:43;;;;;;;50.50;20.77;;;1.20;99.90;;;;;;5011090;28;20223;-68
2020/12/12 08:51:11;;;;;;;52.57;20.47;;;1.20;99.90;;;;;;5021599;28;20230;-66
2020/12/12 08:53:39;;;;;;;48.67;18.23;;;1.20;99.90;;;;;;5010916;28;20242;-67
2020/12/12 08:56:08;;;;;;;50.07;20.93;;;1.40;99.90;;;;;;5017593;28;20308;-66
2020/12/12 08:58:40;;;;;;;49.03;20.07;;;1.40;99.90;;;;;;5030103;28;20246;-67
2020/12/12 09:01:16;;;;;;;52.63;22.13;;;1.40;99.90;;;;;;5026648;28;20272;-67
2020/12/12 09:04:01;;;;;;;51.43;21.80;;;1.50;99.90;;;;;;5026590;28;20232;-66
2020/12/12 09:06:30;;;;;;;54.70;21.30;;;1.40;99.90;;;;;;5028582;28;20222;-66
2020/12/12 09:09:14;;;;;;;62.23;22.80;;;1.50;99.90;;;;;;5024864;28;20240;-66
2020/12/12 09:11:42;;;;;;;59.00;22.23;;;0.70;99.90;;;;;;5016836;28;20277;-67
2020/12/12 09:14:09;;;;;;;50.83;20.30;;;1.60;99.90;;;;;;5022579;28;20593;-67
2020/12/12 09:16:38;;;;;;;61.23;21.97;;;1.60;99.90;;;;;;5009894;28;20654;-67
2020/12/12 09:19:06;;;;;;;60.43;21.07;;;1.60;99.90;;;;;;5008114;28;20245;-67
2020/12/12 09:21:34;;;;;;;51.73;19.10;;;1.60;99.90;;;;;;4973485;28;20214;-67
2020/12/12 09:24:01;;;;;;;47.50;18.13;;;1.60;99.90;;;;;;4986439;28;20219;-67
2020/12/12 09:26:28;;;;;;;63.63;23.07;;;1.70;99.90;;;;;;4988848;28;20282;-67
2020/12/12 09:28:55;;;;;;;67.20;22.67;;;1.80;99.90;;;;;;4987527;28;20298;-67
2020/12/12 09:31:23;;;;;;;55.00;21.30;;;1.80;99.90;;;;;;4989066;28;20211;-67
2020/12/12 09:33:51;;;;;;;55.73;20.40;;;1.80;99.90;;;;;;5000188;28;20226;-67
2020/12/12 09:36:17;;;;;;;61.23;21.57;;;1.70;99.90;;;;;;5008194;28;20222;-67
2020/12/12 09:38:47;;;;;;;53.50;20.40;;;1.90;99.90;;;;;;5006078;28;20722;-66
2020/12/12 09:41:16;;;;;;;62.47;22.60;;;1.90;99.90;;;;;;5008712;28;20223;-66
2020/12/12 09:43:43;;;;;;;62.10;23.80;;;2.00;99.90;;;;;;5007695;28;20207;-66
2020/12/12 09:46:12;;;;;;;57.57;23.33;;;2.00;99.90;;;;;;5008536;28;20277;-66
2020/12/12 09:48:41;;;;;;;54.63;22.13;;;2.10;99.90;;;;;;5007840;28;20288;-66
2020/12/12 09:51:10;;;;;;;47.53;19.60;;;2.10;99.90;;;;;;5019571;28;20222;-67
2020/12/12 09:53:37;;;;;;;49.37;20.90;;;2.20;99.90;;;;;;5058374;28;20284;-67
2020/12/12 09:56:03;;;;;;;46.00;20.23;;;2.20;99.90;;;;;;5069964;28;20205;-67
2020/12/12 09:58:32;;;;;;;52.03;20.80;;;2.20;99.90;;;;;;5070875;28;20209;-67
2020/12/12 10:00:58;;;;;;;45.90;19.07;;;2.20;99.90;;;;;;5071275;28;20193;-67
2020/12/12 10:03:25;;;;;;;42.93;17.97;;;2.20;99.90;;;;;;5071581;28;20309;-67
2020/12/12 10:05:51;;;;;;;49.57;20.70;;;2.20;99.90;;;;;;5070899;28;20224;-66
2020/12/12 10:08:19;;;;;;;50.80;21.27;;;2.20;99.90;;;;;;5029100;28;20198;-67
2020/12/12 10:10:46;;;;;;;49.17;21.33;;;2.20;99.90;;;;;;5031057;28;20221;-66
2020/12/12 10:13:12;;;;;;;48.77;20.23;;;2.30;99.90;;;;;;5030657;28;20210;-67
2020/12/12 10:15:39;;;;;;;45.17;18.70;;;2.20;99.90;;;;;;5010721;28;20666;-66
2020/12/12 10:18:08;;;;;;;59.00;22.07;;;2.30;99.90;;;;;;5011242;28;20713;-67
2020/12/12 10:20:36;;;;;;;52.67;21.53;;;2.30;99.90;;;;;;5010365;28;20195;-66
2020/12/12 10:23:03;;;;;;;54.07;22.67;;;2.30;99.90;;;;;;5001514;28;20223;-66
2020/12/12 10:25:36;;;;;;;54.10;23.10;;;2.20;99.90;;;;;;5006233;28;20242;-67
2020/12/12 10:28:03;;;;;;;58.87;23.10;;;2.30;99.90;;;;;;5010312;28;20219;-66
2020/12/12 10:30:33;;;;;;;61.07;24.20;;;2.20;99.90;;;;;;5010038;28;20318;-66
2020/12/12 10:33:00;;;;;;;55.90;24.37;;;2.30;99.90;;;;;;4973481;28;20255;-66
2020/12/12 10:35:28;;;;;;;49.77;20.57;;;2.30;99.90;;;;;;4970545;28;20223;-68
2020/12/12 10:37:55;;;;;;;42.57;19.00;;;2.40;99.90;;;;;;4970552;28;20234;-67
2020/12/12 10:40:26;;;;;;;49.27;20.20;;;2.40;99.90;;;;;;5004903;28;20203;-67
2020/12/12 10:42:53;;;;;;;42.87;18.37;;;2.60;99.90;;;;;;4983495;28;20223;-67
2020/12/12 10:45:20;;;;;;;40.70;17.40;;;2.60;99.90;;;;;;4986137;28;20204;-67
2020/12/12 10:47:47;;;;;;;35.10;17.17;;;2.60;99.90;;;;;;4990839;28;20211;-67
2020/12/12 10:50:14;;;;;;;46.07;19.00;;;2.70;99.90;;;;;;4990344;28;20262;-68
2020/12/12 10:52:41;;;;;;;50.33;20.43;;;2.70;99.90;;;;;;5028067;28;20210;-68
2020/12/12 10:55:08;;;;;;;54.80;22.83;;;2.70;99.90;;;;;;5027025;28;20198;-67
2020/12/12 10:57:35;;;;;;;51.67;21.30;;;2.60;99.90;;;;;;5010573;28;20662;-67
2020/12/12 11:00:04;;;;;;;49.57;20.17;;;2.60;99.90;;;;;;5029092;28;20297;-67
2020/12/12 11:02:34;;;;;;;46.67;19.87;;;2.60;99.90;;;;;;5009872;28;20768;-67
2020/12/12 11:05:01;;;;;;;55.27;20.77;;;2.50;99.90;;;;;;5043254;28;20209;-67
2020/12/12 11:07:30;;;;;;;42.00;19.87;;;2.50;99.90;;;;;;5051898;28;20317;-67
2020/12/12 11:09:57;;;;;;;45.60;19.87;;;2.50;99.90;;;;;;5045423;28;20639;-68
2020/12/12 11:12:24;;;;;;;43.17;20.03;;;2.60;99.90;;;;;;5009879;28;20849;-67
2020/12/12 11:14:54;;;;;;;55.67;23.53;;;2.60;99.90;;;;;;4991902;28;20231;-67
2020/12/12 11:17:22;;;;;;;59.97;25.17;;;2.60;99.90;;;;;;4990062;28;20226;-68
2020/12/12 11:19:48;;;;;;;52.47;23.57;;;2.60;99.90;;;;;;4970600;28;20287;-68
2020/12/12 11:22:15;;;;;;;44.40;20.43;;;2.70;99.90;;;;;;4930083;29;20205;-68
2020/12/12 11:24:41;;;;;;;42.20;18.77;;;2.70;99.90;;;;;;4920903;29;20257;-67
2020/12/12 11:27:08;;;;;;;40.93;17.50;;;2.80;99.90;;;;;;4932585;29;20645;-67
2020/12/12 11:29:38;;;;;;;34.70;15.43;;;2.90;99.90;;;;;;4917820;29;20222;-67
2020/12/12 11:32:09;;;;;;;38.10;17.20;;;3.00;99.90;;;;;;4949690;28;20196;-66
2020/12/12 11:34:39;;;;;;;36.70;16.97;;;3.10;99.90;;;;;;4961213;28;20217;-66
2020/12/12 11:37:26;;;;;;;41.93;17.33;;;3.00;99.90;;;;;;4957200;28;20704;-67
2020/12/12 11:40:02;;;;;;;39.83;16.87;;;3.00;99.90;;;;;;4958922;28;20205;-67
2020/12/12 11:42:46;;;;;;;44.07;19.30;;;3.00;99.90;;;;;;4949370;29;20237;-67
2020/12/12 11:47:54;;;;;;;46.13;19.27;;;2.80;99.90;;;;;;4930486;29;20201;-67
2020/12/12 11:50:22;;;;;;;45.03;19.23;;;2.80;99.90;;;;;;4927275;29;20716;-67
2020/12/12 11:52:48;;;;;;;36.17;17.23;;;2.70;99.90;;;;;;4934477;28;20244;-67
2020/12/12 11:55:15;;;;;;;46.07;18.90;;;2.80;99.90;;;;;;4923616;29;20235;-68
2020/12/12 11:57:42;;;;;;;47.10;19.97;;;2.80;99.90;;;;;;4944420;29;20240;-68
2020/12/12 12:00:11;;;;;;;51.43;21.83;;;2.80;99.90;;;;;;4944360;29;20600;-67
2020/12/12 12:02:37;;;;;;;55.17;22.93;;;2.80;99.90;;;;;;4955235;28;20220;-66
2020/12/12 12:05:05;;;;;;;51.55;25.33;;;2.80;99.90;;;;;;4955837;28;20875;-66
2020/12/12 12:07:40;;;;;;;48.60;21.47;;;2.80;99.90;;;;;;4957068;28;20212;-66
2020/12/12 12:10:11;;;;;;;50.63;21.53;;;2.80;99.90;;;;;;4961992;28;20227;-66
2020/12/12 12:12:38;;;;;;;60.13;27.75;;;2.80;99.90;;;;;;4943544;28;20522;-66
2020/12/12 12:15:05;;;;;;;55.00;24.03;;;2.80;99.90;;;;;;4941615;29;20265;-66
2020/12/12 12:17:31;;;;;;;52.77;24.13;;;2.90;99.90;;;;;;4951235;28;20264;-66
2020/12/12 12:19:58;;;;;;;49.77;21.27;;;2.80;99.90;;;;;;4964500;28;20227;-65
2020/12/12 12:22:25;;;;;;;52.23;22.97;;;2.90;99.90;;;;;;4963919;28;20242;-65
2020/12/12 12:24:52;;;;;;;48.67;22.77;;;2.80;99.90;;;;;;4958502;28;20698;-65
2020/12/12 12:27:19;;;;;;;50.00;22.97;;;2.80;99.90;;;;;;5022385;28;20229;-65
2020/12/12 12:29:46;;;;;;;50.60;22.93;;;2.80;99.90;;;;;;5068929;28;20212;-65
2020/12/12 12:32:12;;;;;;;64.00;25.80;;;2.70;99.90;;;;;;5049017;28;20197;-65
2020/12/12 12:34:39;;;;;;;62.33;25.87;;;2.60;99.90;;;;;;5048719;28;20201;-65
2020/12/12 12:37:07;;;;;;;55.70;24.50;;;2.50;99.90;;;;;;5046959;28;20690;-65
2020/12/12 12:39:33;;;;;;;55.97;23.90;;;2.60;99.90;;;;;;5048466;28;20197;-66
2020/12/12 12:42:03;;;;;;;53.93;23.47;;;2.60;99.90;;;;;;5050979;28;20320;-65
2020/12/12 12:44:31;;;;;;;47.77;21.27;;;2.60;99.90;;;;;;5064441;28;20201;-65
2020/12/12 12:46:57;;;;;;;46.90;19.70;;;2.60;99.90;;;;;;5070216;28;20228;-66